sensor_id;sensor_type;location;lat;lon;timestamp;P1;durP1;ratioP1;P2;durP2;ratioP2
16828;SDS011;8531;48.078;11.968;2022-09-02T00:00:34;2.10;;;1.90;;
16828;SDS011;8531;48.078;11.968;2022-09-02T00:03:00;2.17;;;1.98;;
16828;SDS011;8531;48.078;11.968;2022-09-02T00:05:25;3.17;;;2.55;;
16828;SDS011;8531;48.078;11.968;2022-09-02T00:07:52;1.95;;;1.48;;
16828;SDS011;8531;48.078;11.968;2022-09-02T00:10:18;2.35;;;2.13;;
16828;SDS011;8531;48.078;11.968;2022-09-02T00:12:44;2.20;;;2.00;;
16828;SDS011;8531;48.078;11.968;2022-09-02T00:15:10;2.28;;;1.88;;
16828;SDS011;8531;48.078;11.968;2022-09-02T00:17:36;3.00;;;1.90;;
16828;SDS011;8531;48.078;11.968;2022-09-02T00:20:02;1.90;;;1.63;;
16828;SDS011;8531;48.078;11.968;2022-09-02T00:22:28;2.65;;;2.45;;
16828;SDS011;8531;48.078;11.968;2022-09-02T00:24:53;3.28;;;2.10;;
16828;SDS011;8531;48.078;11.968;2022-09-02T00:27:19;4.47;;;2.72;;
16828;SDS011;8531;48.078;11.968;2022-09-02T00:29:45;3.80;;;2.72;;
16828;SDS011;8531;48.078;11.968;2022-09-02T00:32:10;2.85;;;2.58;;
16828;SDS011;8531;48.078;11.968;2022-09-02T00:34:36;3.60;;;3.03;;
16828;SDS011;8531;48.078;11.968;2022-09-02T00:37:01;4.32;;;3.08;;
16828;SDS011;8531;48.078;11.968;2022-09-02T00:39:27;3.47;;;2.78;;
16828;SDS011;8531;48.078;11.968;2022-09-02T00:41:53;4.43;;;3.20;;
16828;SDS011;8531;48.078;11.968;2022-09-02T00:44:19;3.10;;;2.70;;
16828;SDS011;8531;48.078;11.968;2022-09-02T00:46:45;7.80;;;3.10;;
16828;SDS011;8531;48.078;11.968;2022-09-02T00:49:24;2.72;;;2.53;;
16828;SDS011;8531;48.078;11.968;2022-09-02T00:51:54;4.50;;;2.80;;
16828;SDS011;8531;48.078;11.968;2022-09-02T00:54:28;4.57;;;2.45;;
16828;SDS011;8531;48.078;11.968;2022-09-02T00:56:56;6.35;;;3.13;;
16828;SDS011;8531;48.078;11.968;2022-09-02T00:59:23;2.63;;;2.42;;
16828;SDS011;8531;48.078;11.968;2022-09-02T01:01:58;3.05;;;2.28;;
16828;SDS011;8531;48.078;11.968;2022-09-02T01:04:24;4.03;;;2.80;;
16828;SDS011;8531;48.078;11.968;2022-09-02T01:06:50;3.78;;;2.20;;
16828;SDS011;8531;48.078;11.968;2022-09-02T01:09:16;3.05;;;2.30;;
16828;SDS011;8531;48.078;11.968;2022-09-02T01:11:46;2.45;;;2.25;;
16828;SDS011;8531;48.078;11.968;2022-09-02T01:14:17;2.40;;;2.17;;
16828;SDS011;8531;48.078;11.968;2022-09-02T01:16:48;3.97;;;2.58;;
16828;SDS011;8531;48.078;11.968;2022-09-02T01:19:19;2.10;;;1.90;;
16828;SDS011;8531;48.078;11.968;2022-09-02T01:21:51;3.65;;;2.42;;
16828;SDS011;8531;48.078;11.968;2022-09-02T01:24:18;3.05;;;2.28;;
16828;SDS011;8531;48.078;11.968;2022-09-02T01:26:46;2.65;;;2.30;;
16828;SDS011;8531;48.078;11.968;2022-09-02T01:29:12;2.58;;;2.38;;
16828;SDS011;8531;48.078;11.968;2022-09-02T01:31:40;4.53;;;2.33;;
16828;SDS011;8531;48.078;11.968;2022-09-02T01:34:06;2.65;;;2.45;;
16828;SDS011;8531;48.078;11.968;2022-09-02T01:36:32;2.38;;;2.17;;
16828;SDS011;8531;48.078;11.968;2022-09-02T01:39:01;2.60;;;2.40;;
16828;SDS011;8531;48.078;11.968;2022-09-02T01:41:27;3.72;;;2.97;;
16828;SDS011;8531;48.078;11.968;2022-09-02T01:43:53;3.30;;;2.85;;
16828;SDS011;8531;48.078;11.968;2022-09-02T01:46:20;2.90;;;2.22;;
16828;SDS011;8531;48.078;11.968;2022-09-02T01:48:47;3.03;;;2.40;;
16828;SDS011;8531;48.078;11.968;2022-09-02T01:51:14;4.93;;;2.35;;
16828;SDS011;8531;48.078;11.968;2022-09-02T01:53:44;3.08;;;2.67;;
16828;SDS011;8531;48.078;11.968;2022-09-02T01:56:11;3.08;;;2.70;;
16828;SDS011;8531;48.078;11.968;2022-09-02T01:58:37;3.63;;;2.75;;
16828;SDS011;8531;48.078;11.968;2022-09-02T02:01:03;3.72;;;2.72;;
16828;SDS011;8531;48.078;11.968;2022-09-02T02:03:29;4.55;;;2.60;;
16828;SDS011;8531;48.078;11.968;2022-09-02T02:05:54;2.95;;;2.58;;
16828;SDS011;8531;48.078;11.968;2022-09-02T02:08:20;3.05;;;2.72;;
16828;SDS011;8531;48.078;11.968;2022-09-02T02:10:47;2.80;;;2.60;;
16828;SDS011;8531;48.078;11.968;2022-09-02T02:13:13;2.75;;;2.55;;
16828;SDS011;8531;48.078;11.968;2022-09-02T02:15:40;3.20;;;2.53;;
16828;SDS011;8531;48.078;11.968;2022-09-02T02:18:07;5.43;;;2.97;;
16828;SDS011;8531;48.078;11.968;2022-09-02T02:20:34;4.38;;;2.88;;
16828;SDS011;8531;48.078;11.968;2022-09-02T02:23:00;3.47;;;3.17;;
16828;SDS011;8531;48.078;11.968;2022-09-02T02:25:26;4.30;;;3.28;;
16828;SDS011;8531;48.078;11.968;2022-09-02T02:27:52;3.78;;;2.45;;
16828;SDS011;8531;48.078;11.968;2022-09-02T02:30:18;2.78;;;2.55;;
16828;SDS011;8531;48.078;11.968;2022-09-02T02:32:44;3.28;;;2.95;;
16828;SDS011;8531;48.078;11.968;2022-09-02T02:35:15;3.10;;;2.80;;
16828;SDS011;8531;48.078;11.968;2022-09-02T02:37:42;3.42;;;2.65;;
16828;SDS011;8531;48.078;11.968;2022-09-02T02:40:10;2.70;;;2.42;;
16828;SDS011;8531;48.078;11.968;2022-09-02T02:42:36;2.95;;;2.72;;
16828;SDS011;8531;48.078;11.968;2022-09-02T02:45:03;4.00;;;2.60;;
16828;SDS011;8531;48.078;11.968;2022-09-02T02:47:43;5.22;;;3.10;;
16828;SDS011;8531;48.078;11.968;2022-09-02T02:50:11;3.10;;;2.80;;
16828;SDS011;8531;48.078;11.968;2022-09-02T02:52:39;4.22;;;2.75;;
16828;SDS011;8531;48.078;11.968;2022-09-02T02:55:06;4.10;;;3.10;;
16828;SDS011;8531;48.078;11.968;2022-09-02T02:57:34;5.15;;;3.42;;
16828;SDS011;8531;48.078;11.968;2022-09-02T03:00:03;3.83;;;3.53;;
16828;SDS011;8531;48.078;11.968;2022-09-02T03:02:34;4.75;;;3.60;;
16828;SDS011;8531;48.078;11.968;2022-09-02T03:04:59;2.90;;;2.70;;
16828;SDS011;8531;48.078;11.968;2022-09-02T03:07:25;3.33;;;3.03;;
16828;SDS011;8531;48.078;11.968;2022-09-02T03:09:52;4.00;;;3.60;;
16828;SDS011;8531;48.078;11.968;2022-09-02T03:12:17;4.63;;;4.05;;
16828;SDS011;8531;48.078;11.968;2022-09-02T03:14:43;4.78;;;4.03;;
16828;SDS011;8531;48.078;11.968;2022-09-02T03:17:09;3.00;;;2.80;;
16828;SDS011;8531;48.078;11.968;2022-09-02T03:19:34;3.70;;;3.40;;
16828;SDS011;8531;48.078;11.968;2022-09-02T03:22:00;6.28;;;3.53;;
16828;SDS011;8531;48.078;11.968;2022-09-02T03:24:26;4.47;;;4.07;;
16828;SDS011;8531;48.078;11.968;2022-09-02T03:26:52;4.70;;;4.18;;
16828;SDS011;8531;48.078;11.968;2022-09-02T03:29:17;4.95;;;4.45;;
16828;SDS011;8531;48.078;11.968;2022-09-02T03:31:43;5.15;;;3.97;;
16828;SDS011;8531;48.078;11.968;2022-09-02T03:34:09;5.10;;;4.28;;
16828;SDS011;8531;48.078;11.968;2022-09-02T03:36:36;5.00;;;4.03;;
16828;SDS011;8531;48.078;11.968;2022-09-02T03:39:04;4.63;;;4.20;;
16828;SDS011;8531;48.078;11.968;2022-09-02T03:41:31;7.28;;;5.00;;
16828;SDS011;8531;48.078;11.968;2022-09-02T03:43:58;4.40;;;3.97;;
16828;SDS011;8531;48.078;11.968;2022-09-02T03:46:24;7.45;;;4.60;;
16828;SDS011;8531;48.078;11.968;2022-09-02T03:48:50;4.57;;;4.13;;
16828;SDS011;8531;48.078;11.968;2022-09-02T03:51:19;5.07;;;4.20;;
16828;SDS011;8531;48.078;11.968;2022-09-02T03:53:47;5.38;;;4.40;;
16828;SDS011;8531;48.078;11.968;2022-09-02T03:56:13;9.75;;;4.82;;
16828;SDS011;8531;48.078;11.968;2022-09-02T03:58:40;7.10;;;4.70;;
16828;SDS011;8531;48.078;11.968;2022-09-02T04:01:07;4.55;;;4.15;;
16828;SDS011;8531;48.078;11.968;2022-09-02T04:03:37;5.03;;;4.13;;
16828;SDS011;8531;48.078;11.968;2022-09-02T04:06:02;5.30;;;4.68;;
16828;SDS011;8531;48.078;11.968;2022-09-02T04:08:28;5.55;;;4.93;;
16828;SDS011;8531;48.078;11.968;2022-09-02T04:10:54;7.22;;;5.95;;
16828;SDS011;8531;48.078;11.968;2022-09-02T04:13:20;6.15;;;4.63;;
16828;SDS011;8531;48.078;11.968;2022-09-02T04:15:46;5.25;;;4.53;;
16828;SDS011;8531;48.078;11.968;2022-09-02T04:18:13;6.95;;;4.82;;
16828;SDS011;8531;48.078;11.968;2022-09-02T04:20:41;4.75;;;4.32;;
16828;SDS011;8531;48.078;11.968;2022-09-02T04:23:07;4.85;;;4.45;;
16828;SDS011;8531;48.078;11.968;2022-09-02T04:25:33;5.00;;;4.60;;
16828;SDS011;8531;48.078;11.968;2022-09-02T04:28:03;5.50;;;4.97;;
16828;SDS011;8531;48.078;11.968;2022-09-02T04:30:29;5.80;;;5.30;;
16828;SDS011;8531;48.078;11.968;2022-09-02T04:32:54;5.75;;;5.05;;
16828;SDS011;8531;48.078;11.968;2022-09-02T04:35:20;5.70;;;4.68;;
16828;SDS011;8531;48.078;11.968;2022-09-02T04:37:45;5.43;;;4.93;;
16828;SDS011;8531;48.078;11.968;2022-09-02T04:40:13;5.53;;;5.00;;
16828;SDS011;8531;48.078;11.968;2022-09-02T04:42:39;6.22;;;4.85;;
16828;SDS011;8531;48.078;11.968;2022-09-02T04:45:05;5.22;;;4.82;;
16828;SDS011;8531;48.078;11.968;2022-09-02T04:47:31;4.72;;;4.32;;
16828;SDS011;8531;48.078;11.968;2022-09-02T04:49:57;4.68;;;4.28;;
16828;SDS011;8531;48.078;11.968;2022-09-02T04:52:22;6.07;;;5.25;;
16828;SDS011;8531;48.078;11.968;2022-09-02T04:54:49;4.57;;;4.28;;
16828;SDS011;8531;48.078;11.968;2022-09-02T04:57:14;6.40;;;4.80;;
16828;SDS011;8531;48.078;11.968;2022-09-02T04:59:40;6.85;;;4.68;;
16828;SDS011;8531;48.078;11.968;2022-09-02T05:02:06;5.50;;;5.00;;
16828;SDS011;8531;48.078;11.968;2022-09-02T05:04:32;6.22;;;5.22;;
16828;SDS011;8531;48.078;11.968;2022-09-02T05:06:58;5.63;;;4.82;;
16828;SDS011;8531;48.078;11.968;2022-09-02T05:09:27;6.93;;;4.88;;
16828;SDS011;8531;48.078;11.968;2022-09-02T05:11:54;5.57;;;5.07;;
16828;SDS011;8531;48.078;11.968;2022-09-02T05:14:22;5.35;;;4.85;;
16828;SDS011;8531;48.078;11.968;2022-09-02T05:16:48;4.97;;;4.55;;
16828;SDS011;8531;48.078;11.968;2022-09-02T05:19:17;5.47;;;4.95;;
16828;SDS011;8531;48.078;11.968;2022-09-02T05:21:45;5.72;;;4.72;;
16828;SDS011;8531;48.078;11.968;2022-09-02T05:24:12;5.30;;;4.43;;
16828;SDS011;8531;48.078;11.968;2022-09-02T05:26:38;7.00;;;4.45;;
16828;SDS011;8531;48.078;11.968;2022-09-02T05:29:04;5.60;;;4.93;;
16828;SDS011;8531;48.078;11.968;2022-09-02T05:31:33;5.40;;;4.40;;
16828;SDS011;8531;48.078;11.968;2022-09-02T05:33:59;5.80;;;5.22;;
16828;SDS011;8531;48.078;11.968;2022-09-02T05:36:25;4.43;;;3.97;;
16828;SDS011;8531;48.078;11.968;2022-09-02T05:38:51;8.18;;;4.65;;
16828;SDS011;8531;48.078;11.968;2022-09-02T05:41:18;5.90;;;4.38;;
16828;SDS011;8531;48.078;11.968;2022-09-02T05:43:49;5.45;;;4.28;;
16828;SDS011;8531;48.078;11.968;2022-09-02T05:46:20;5.88;;;4.47;;
16828;SDS011;8531;48.078;11.968;2022-09-02T05:48:47;5.95;;;4.40;;
16828;SDS011;8531;48.078;11.968;2022-09-02T05:51:34;5.50;;;4.47;;
16828;SDS011;8531;48.078;11.968;2022-09-02T05:54:06;4.50;;;4.10;;
16828;SDS011;8531;48.078;11.968;2022-09-02T05:56:38;5.28;;;4.53;;
16828;SDS011;8531;48.078;11.968;2022-09-02T05:59:05;6.50;;;5.20;;
16828;SDS011;8531;48.078;11.968;2022-09-02T06:01:32;4.38;;;4.00;;
16828;SDS011;8531;48.078;11.968;2022-09-02T06:03:58;6.85;;;4.75;;
16828;SDS011;8531;48.078;11.968;2022-09-02T06:06:26;4.30;;;3.90;;
16828;SDS011;8531;48.078;11.968;2022-09-02T06:08:52;5.43;;;4.45;;
16828;SDS011;8531;48.078;11.968;2022-09-02T06:11:18;5.22;;;4.68;;
16828;SDS011;8531;48.078;11.968;2022-09-02T06:13:44;4.85;;;4.38;;
16828;SDS011;8531;48.078;11.968;2022-09-02T06:16:14;6.60;;;4.55;;
16828;SDS011;8531;48.078;11.968;2022-09-02T06:18:42;5.50;;;4.65;;
16828;SDS011;8531;48.078;11.968;2022-09-02T06:21:09;4.53;;;4.13;;
16828;SDS011;8531;48.078;11.968;2022-09-02T06:23:35;5.30;;;4.25;;
16828;SDS011;8531;48.078;11.968;2022-09-02T06:26:02;4.22;;;3.90;;
16828;SDS011;8531;48.078;11.968;2022-09-02T06:28:29;4.03;;;3.67;;
16828;SDS011;8531;48.078;11.968;2022-09-02T06:30:55;5.85;;;4.18;;
16828;SDS011;8531;48.078;11.968;2022-09-02T06:33:21;7.40;;;4.43;;
16828;SDS011;8531;48.078;11.968;2022-09-02T06:35:47;5.13;;;3.67;;
16828;SDS011;8531;48.078;11.968;2022-09-02T06:38:13;8.05;;;3.90;;
16828;SDS011;8531;48.078;11.968;2022-09-02T06:40:49;4.10;;;3.45;;
16828;SDS011;8531;48.078;11.968;2022-09-02T06:43:19;7.40;;;5.20;;
16828;SDS011;8531;48.078;11.968;2022-09-02T06:45:45;4.85;;;3.70;;
16828;SDS011;8531;48.078;11.968;2022-09-02T06:48:11;4.82;;;3.90;;
16828;SDS011;8531;48.078;11.968;2022-09-02T06:50:41;4.05;;;3.45;;
16828;SDS011;8531;48.078;11.968;2022-09-02T06:53:08;3.80;;;3.22;;
16828;SDS011;8531;48.078;11.968;2022-09-02T06:55:35;4.22;;;3.42;;
16828;SDS011;8531;48.078;11.968;2022-09-02T06:58:02;3.35;;;3.05;;
16828;SDS011;8531;48.078;11.968;2022-09-02T07:00:28;4.40;;;3.20;;
16828;SDS011;8531;48.078;11.968;2022-09-02T07:02:55;3.55;;;3.25;;
16828;SDS011;8531;48.078;11.968;2022-09-02T07:05:40;3.35;;;2.88;;
16828;SDS011;8531;48.078;11.968;2022-09-02T07:08:06;6.40;;;3.40;;
16828;SDS011;8531;48.078;11.968;2022-09-02T07:10:31;3.47;;;3.15;;
16828;SDS011;8531;48.078;11.968;2022-09-02T07:13:01;3.60;;;2.67;;
16828;SDS011;8531;48.078;11.968;2022-09-02T07:15:26;3.28;;;2.97;;
16828;SDS011;8531;48.078;11.968;2022-09-02T07:17:52;2.90;;;2.53;;
16828;SDS011;8531;48.078;11.968;2022-09-02T07:20:18;6.65;;;3.00;;
16828;SDS011;8531;48.078;11.968;2022-09-02T07:22:43;2.78;;;2.42;;
16828;SDS011;8531;48.078;11.968;2022-09-02T07:25:09;3.45;;;2.50;;
16828;SDS011;8531;48.078;11.968;2022-09-02T07:27:35;2.80;;;2.55;;
16828;SDS011;8531;48.078;11.968;2022-09-02T07:30:01;2.60;;;2.40;;
16828;SDS011;8531;48.078;11.968;2022-09-02T07:32:29;3.45;;;2.63;;
16828;SDS011;8531;48.078;11.968;2022-09-02T07:34:55;2.50;;;2.30;;
16828;SDS011;8531;48.078;11.968;2022-09-02T07:37:20;3.20;;;2.40;;
16828;SDS011;8531;48.078;11.968;2022-09-02T07:39:46;3.33;;;2.90;;
16828;SDS011;8531;48.078;11.968;2022-09-02T07:42:12;3.10;;;2.15;;
16828;SDS011;8531;48.078;11.968;2022-09-02T07:44:38;3.00;;;2.30;;
16828;SDS011;8531;48.078;11.968;2022-09-02T07:47:04;2.50;;;2.30;;
16828;SDS011;8531;48.078;11.968;2022-09-02T07:49:30;2.30;;;2.10;;
16828;SDS011;8531;48.078;11.968;2022-09-02T07:51:56;2.60;;;2.40;;
16828;SDS011;8531;48.078;11.968;2022-09-02T07:54:23;2.22;;;2.03;;
16828;SDS011;8531;48.078;11.968;2022-09-02T07:56:50;5.72;;;3.05;;
16828;SDS011;8531;48.078;11.968;2022-09-02T07:59:17;2.20;;;2.00;;
16828;SDS011;8531;48.078;11.968;2022-09-02T08:01:45;2.20;;;2.00;;
16828;SDS011;8531;48.078;11.968;2022-09-02T08:04:12;3.28;;;2.13;;
16828;SDS011;8531;48.078;11.968;2022-09-02T08:06:39;2.35;;;1.90;;
16828;SDS011;8531;48.078;11.968;2022-09-02T08:09:06;3.95;;;1.70;;
16828;SDS011;8531;48.078;11.968;2022-09-02T08:11:37;2.22;;;1.65;;
16828;SDS011;8531;48.078;11.968;2022-09-02T08:14:09;2.03;;;1.63;;
16828;SDS011;8531;48.078;11.968;2022-09-02T08:16:36;2.42;;;1.85;;
16828;SDS011;8531;48.078;11.968;2022-09-02T08:19:03;2.67;;;1.65;;
16828;SDS011;8531;48.078;11.968;2022-09-02T08:21:29;1.50;;;1.20;;
16828;SDS011;8531;48.078;11.968;2022-09-02T08:23:55;4.30;;;1.35;;
16828;SDS011;8531;48.078;11.968;2022-09-02T08:26:24;1.50;;;1.40;;
16828;SDS011;8531;48.078;11.968;2022-09-02T08:28:52;2.88;;;1.75;;
16828;SDS011;8531;48.078;11.968;2022-09-02T08:31:18;1.73;;;1.33;;
16828;SDS011;8531;48.078;11.968;2022-09-02T08:33:44;3.92;;;1.55;;
16828;SDS011;8531;48.078;11.968;2022-09-02T08:36:10;1.65;;;1.30;;
16828;SDS011;8531;48.078;11.968;2022-09-02T08:38:38;2.78;;;1.58;;
16828;SDS011;8531;48.078;11.968;2022-09-02T08:41:16;3.72;;;1.00;;
16828;SDS011;8531;48.078;11.968;2022-09-02T08:43:53;2.75;;;1.42;;
16828;SDS011;8531;48.078;11.968;2022-09-02T08:46:22;1.50;;;1.20;;
16828;SDS011;8531;48.078;11.968;2022-09-02T08:49:01;1.80;;;1.23;;
16828;SDS011;8531;48.078;11.968;2022-09-02T08:51:51;1.08;;;0.98;;
16828;SDS011;8531;48.078;11.968;2022-09-02T08:56:47;1.85;;;1.00;;
16828;SDS011;8531;48.078;11.968;2022-09-02T08:59:15;1.48;;;1.30;;
16828;SDS011;8531;48.078;11.968;2022-09-02T09:01:50;1.38;;;1.20;;
16828;SDS011;8531;48.078;11.968;2022-09-02T09:21:36;2.60;;;0.90;;
16828;SDS011;8531;48.078;11.968;2022-09-02T09:24:12;1.80;;;1.20;;
16828;SDS011;8531;48.078;11.968;2022-09-02T09:26:54;0.95;;;0.90;;
16828;SDS011;8531;48.078;11.968;2022-09-02T09:29:20;2.05;;;0.82;;
16828;SDS011;8531;48.078;11.968;2022-09-02T09:31:52;3.08;;;0.90;;
16828;SDS011;8531;48.078;11.968;2022-09-02T09:34:20;1.27;;;0.82;;
16828;SDS011;8531;48.078;11.968;2022-09-02T09:36:48;1.67;;;0.80;;
16828;SDS011;8531;48.078;11.968;2022-09-02T09:39:21;1.15;;;0.90;;
16828;SDS011;8531;48.078;11.968;2022-09-02T09:41:56;2.83;;;1.17;;
16828;SDS011;8531;48.078;11.968;2022-09-02T09:47:05;1.55;;;1.00;;
16828;SDS011;8531;48.078;11.968;2022-09-02T09:49:38;1.00;;;0.50;;
16828;SDS011;8531;48.078;11.968;2022-09-02T09:52:04;0.80;;;0.50;;
16828;SDS011;8531;48.078;11.968;2022-09-02T09:54:30;3.03;;;0.80;;
16828;SDS011;8531;48.078;11.968;2022-09-02T09:56:56;1.25;;;0.73;;
16828;SDS011;8531;48.078;11.968;2022-09-02T10:05:16;5.03;;;0.80;;
16828;SDS011;8531;48.078;11.968;2022-09-02T10:08:03;7.50;;;0.77;;
16828;SDS011;8531;48.078;11.968;2022-09-02T10:11:03;1.48;;;0.90;;
16828;SDS011;8531;48.078;11.968;2022-09-02T10:13:33;1.95;;;0.70;;
16828;SDS011;8531;48.078;11.968;2022-09-02T10:21:43;1.00;;;0.80;;
16828;SDS011;8531;48.078;11.968;2022-09-02T10:27:25;1.30;;;1.00;;
16828;SDS011;8531;48.078;11.968;2022-09-02T10:29:54;1.80;;;1.02;;
16828;SDS011;8531;48.078;11.968;2022-09-02T10:35:35;1.77;;;1.20;;
16828;SDS011;8531;48.078;11.968;2022-09-02T10:40:37;2.20;;;1.10;;
16828;SDS011;8531;48.078;11.968;2022-09-02T10:46:10;0.80;;;0.63;;
16828;SDS011;8531;48.078;11.968;2022-09-02T10:51:43;1.42;;;0.90;;
16828;SDS011;8531;48.078;11.968;2022-09-02T11:00:00;0.77;;;0.70;;
16828;SDS011;8531;48.078;11.968;2022-09-02T11:02:33;1.67;;;0.93;;
16828;SDS011;8531;48.078;11.968;2022-09-02T11:05:20;3.13;;;0.68;;
16828;SDS011;8531;48.078;11.968;2022-09-02T11:07:54;1.27;;;0.80;;
16828;SDS011;8531;48.078;11.968;2022-09-02T11:10:36;0.70;;;0.50;;
16828;SDS011;8531;48.078;11.968;2022-09-02T11:13:15;2.70;;;0.70;;
16828;SDS011;8531;48.078;11.968;2022-09-02T11:16:09;2.05;;;0.90;;
16828;SDS011;8531;48.078;11.968;2022-09-02T11:18:43;2.03;;;0.60;;
16828;SDS011;8531;48.078;11.968;2022-09-02T11:21:22;1.95;;;0.57;;
16828;SDS011;8531;48.078;11.968;2022-09-02T11:23:51;1.60;;;0.80;;
16828;SDS011;8531;48.078;11.968;2022-09-02T11:29:21;1.52;;;0.65;;
16828;SDS011;8531;48.078;11.968;2022-09-02T11:34:46;2.63;;;0.70;;
16828;SDS011;8531;48.078;11.968;2022-09-02T11:37:37;3.95;;;1.45;;
16828;SDS011;8531;48.078;11.968;2022-09-02T11:45:55;1.70;;;0.60;;
16828;SDS011;8531;48.078;11.968;2022-09-02T11:53:53;1.40;;;0.75;;
16828;SDS011;8531;48.078;11.968;2022-09-02T11:56:22;1.83;;;0.82;;
16828;SDS011;8531;48.078;11.968;2022-09-02T11:58:53;1.95;;;0.55;;
16828;SDS011;8531;48.078;11.968;2022-09-02T12:01:29;1.85;;;0.63;;
16828;SDS011;8531;48.078;11.968;2022-09-02T12:04:17;3.80;;;1.20;;
16828;SDS011;8531;48.078;11.968;2022-09-02T12:09:43;1.85;;;0.90;;
16828;SDS011;8531;48.078;11.968;2022-09-02T12:12:37;3.42;;;0.90;;
16828;SDS011;8531;48.078;11.968;2022-09-02T12:15:16;1.77;;;0.80;;
16828;SDS011;8531;48.078;11.968;2022-09-02T12:23:08;1.58;;;0.90;;
16828;SDS011;8531;48.078;11.968;2022-09-02T12:26:01;0.63;;;0.45;;
16828;SDS011;8531;48.078;11.968;2022-09-02T12:28:30;3.92;;;0.95;;
16828;SDS011;8531;48.078;11.968;2022-09-02T12:33:29;1.48;;;0.95;;
16828;SDS011;8531;48.078;11.968;2022-09-02T12:35:59;1.85;;;0.70;;
16828;SDS011;8531;48.078;11.968;2022-09-02T12:38:28;2.10;;;0.70;;
16828;SDS011;8531;48.078;11.968;2022-09-02T12:50:32;3.40;;;0.70;;
16828;SDS011;8531;48.078;11.968;2022-09-02T12:58:34;2.70;;;0.70;;
16828;SDS011;8531;48.078;11.968;2022-09-02T13:01:16;0.88;;;0.70;;
16828;SDS011;8531;48.078;11.968;2022-09-02T13:04:01;2.00;;;0.70;;
16828;SDS011;8531;48.078;11.968;2022-09-02T13:33:55;0.60;;;0.50;;
16828;SDS011;8531;48.078;11.968;2022-09-02T13:36:23;3.03;;;0.73;;
16828;SDS011;8531;48.078;11.968;2022-09-02T13:39:08;1.35;;;0.80;;
16828;SDS011;8531;48.078;11.968;2022-09-02T13:41:44;2.55;;;0.70;;
16828;SDS011;8531;48.078;11.968;2022-09-02T13:44:11;2.10;;;0.55;;
16828;SDS011;8531;48.078;11.968;2022-09-02T13:46:51;1.08;;;0.80;;
16828;SDS011;8531;48.078;11.968;2022-09-02T13:49:34;1.50;;;0.82;;
16828;SDS011;8531;48.078;11.968;2022-09-02T13:52:04;1.50;;;0.80;;
16828;SDS011;8531;48.078;11.968;2022-09-02T13:54:36;2.25;;;0.75;;
16828;SDS011;8531;48.078;11.968;2022-09-02T13:57:04;1.08;;;0.98;;
16828;SDS011;8531;48.078;11.968;2022-09-02T13:59:37;1.73;;;0.80;;
16828;SDS011;8531;48.078;11.968;2022-09-02T14:02:19;1.20;;;0.50;;
16828;SDS011;8531;48.078;11.968;2022-09-02T14:04:49;2.42;;;0.63;;
16828;SDS011;8531;48.078;11.968;2022-09-02T14:07:25;1.58;;;0.75;;
16828;SDS011;8531;48.078;11.968;2022-09-02T14:09:54;0.77;;;0.70;;
16828;SDS011;8531;48.078;11.968;2022-09-02T14:12:22;1.60;;;0.70;;
16828;SDS011;8531;48.078;11.968;2022-09-02T14:14:50;3.10;;;0.90;;
16828;SDS011;8531;48.078;11.968;2022-09-02T14:17:23;0.60;;;0.60;;
16828;SDS011;8531;48.078;11.968;2022-09-02T14:19:50;1.00;;;0.60;;
16828;SDS011;8531;48.078;11.968;2022-09-02T14:22:32;1.10;;;0.70;;
16828;SDS011;8531;48.078;11.968;2022-09-02T14:24:58;0.75;;;0.70;;
16828;SDS011;8531;48.078;11.968;2022-09-02T14:27:24;1.88;;;0.70;;
16828;SDS011;8531;48.078;11.968;2022-09-02T14:29:54;1.95;;;0.70;;
16828;SDS011;8531;48.078;11.968;2022-09-02T14:32:25;3.42;;;0.73;;
16828;SDS011;8531;48.078;11.968;2022-09-02T14:35:09;1.10;;;0.65;;
16828;SDS011;8531;48.078;11.968;2022-09-02T14:37:49;1.17;;;0.63;;
16828;SDS011;8531;48.078;11.968;2022-09-02T14:40:17;2.50;;;0.60;;
16828;SDS011;8531;48.078;11.968;2022-09-02T14:42:54;2.50;;;0.80;;
16828;SDS011;8531;48.078;11.968;2022-09-02T14:45:39;1.70;;;0.90;;
16828;SDS011;8531;48.078;11.968;2022-09-02T14:48:21;2.55;;;0.88;;
16828;SDS011;8531;48.078;11.968;2022-09-02T14:50:49;2.10;;;0.55;;
16828;SDS011;8531;48.078;11.968;2022-09-02T14:53:26;1.88;;;0.73;;
16828;SDS011;8531;48.078;11.968;2022-09-02T14:55:53;1.95;;;0.60;;
16828;SDS011;8531;48.078;11.968;2022-09-02T14:58:20;1.60;;;0.70;;
16828;SDS011;8531;48.078;11.968;2022-09-02T15:00:49;1.00;;;0.60;;
16828;SDS011;8531;48.078;11.968;2022-09-02T15:03:17;1.00;;;0.80;;
16828;SDS011;8531;48.078;11.968;2022-09-02T15:05:44;0.60;;;0.50;;
16828;SDS011;8531;48.078;11.968;2022-09-02T15:08:10;2.95;;;0.70;;
16828;SDS011;8531;48.078;11.968;2022-09-02T15:10:37;1.90;;;0.60;;
16828;SDS011;8531;48.078;11.968;2022-09-02T15:13:04;1.52;;;0.65;;
16828;SDS011;8531;48.078;11.968;2022-09-02T15:15:32;3.30;;;0.70;;
16828;SDS011;8531;48.078;11.968;2022-09-02T15:17:57;1.85;;;0.75;;
16828;SDS011;8531;48.078;11.968;2022-09-02T15:20:23;3.00;;;0.75;;
16828;SDS011;8531;48.078;11.968;2022-09-02T15:22:50;2.70;;;0.80;;
16828;SDS011;8531;48.078;11.968;2022-09-02T15:25:17;1.50;;;0.55;;
16828;SDS011;8531;48.078;11.968;2022-09-02T15:27:43;2.90;;;0.68;;
16828;SDS011;8531;48.078;11.968;2022-09-02T15:30:09;0.75;;;0.70;;
16828;SDS011;8531;48.078;11.968;2022-09-02T15:32:37;1.48;;;0.63;;
16828;SDS011;8531;48.078;11.968;2022-09-02T15:35:04;1.80;;;0.60;;
16828;SDS011;8531;48.078;11.968;2022-09-02T15:37:31;4.03;;;0.57;;
16828;SDS011;8531;48.078;11.968;2022-09-02T15:39:59;3.10;;;0.93;;
16828;SDS011;8531;48.078;11.968;2022-09-02T15:42:24;3.63;;;0.98;;
16828;SDS011;8531;48.078;11.968;2022-09-02T15:44:50;2.10;;;0.70;;
16828;SDS011;8531;48.078;11.968;2022-09-02T15:47:16;1.13;;;0.93;;
16828;SDS011;8531;48.078;11.968;2022-09-02T15:49:41;0.93;;;0.50;;
16828;SDS011;8531;48.078;11.968;2022-09-02T15:52:07;1.17;;;0.55;;
16828;SDS011;8531;48.078;11.968;2022-09-02T15:54:33;2.08;;;0.60;;
16828;SDS011;8531;48.078;11.968;2022-09-02T15:56:58;5.82;;;1.15;;
16828;SDS011;8531;48.078;11.968;2022-09-02T15:59:24;3.65;;;0.93;;
16828;SDS011;8531;48.078;11.968;2022-09-02T16:01:51;1.13;;;0.60;;
16828;SDS011;8531;48.078;11.968;2022-09-02T16:04:22;0.52;;;0.50;;
16828;SDS011;8531;48.078;11.968;2022-09-02T16:06:48;2.28;;;1.05;;
16828;SDS011;8531;48.078;11.968;2022-09-02T16:09:16;3.00;;;0.65;;
16828;SDS011;8531;48.078;11.968;2022-09-02T16:11:43;1.90;;;0.95;;
16828;SDS011;8531;48.078;11.968;2022-09-02T16:14:11;3.22;;;0.90;;
16828;SDS011;8531;48.078;11.968;2022-09-02T16:16:37;1.48;;;0.60;;
16828;SDS011;8531;48.078;11.968;2022-09-02T16:19:04;0.60;;;0.55;;
16828;SDS011;8531;48.078;11.968;2022-09-02T16:21:31;2.95;;;0.68;;
16828;SDS011;8531;48.078;11.968;2022-09-02T16:23:57;2.78;;;0.77;;
16828;SDS011;8531;48.078;11.968;2022-09-02T16:26:23;1.25;;;0.63;;
16828;SDS011;8531;48.078;11.968;2022-09-02T16:28:58;1.05;;;0.68;;
16828;SDS011;8531;48.078;11.968;2022-09-02T16:31:25;1.10;;;0.82;;
16828;SDS011;8531;48.078;11.968;2022-09-02T16:33:57;1.17;;;0.73;;
16828;SDS011;8531;48.078;11.968;2022-09-02T16:36:25;2.63;;;0.60;;
16828;SDS011;8531;48.078;11.968;2022-09-02T16:38:52;13.52;;;12.10;;
16828;SDS011;8531;48.078;11.968;2022-09-02T16:44:02;1.73;;;0.80;;
16828;SDS011;8531;48.078;11.968;2022-09-02T16:46:29;0.60;;;0.60;;
16828;SDS011;8531;48.078;11.968;2022-09-02T16:48:56;2.60;;;0.80;;
16828;SDS011;8531;48.078;11.968;2022-09-02T16:51:23;1.40;;;0.77;;
16828;SDS011;8531;48.078;11.968;2022-09-02T16:53:56;1.63;;;0.80;;
16828;SDS011;8531;48.078;11.968;2022-09-02T16:56:24;2.13;;;0.52;;
16828;SDS011;8531;48.078;11.968;2022-09-02T16:58:50;2.25;;;0.70;;
16828;SDS011;8531;48.078;11.968;2022-09-02T17:01:19;2.30;;;0.60;;
16828;SDS011;8531;48.078;11.968;2022-09-02T17:03:47;2.45;;;0.50;;
16828;SDS011;8531;48.078;11.968;2022-09-02T17:06:14;0.93;;;0.60;;